Time;durP1;ratioP1;P1;durP2;ratioP2;P2;SDS_P1;SDS_P2;PMS_P1;PMS_P2;Temp;Humidity;BMP_temperature;BMP_pressure;BME280_temperature;BME280_humidity;BME280_pressure;Samples;Min_cycle;Max_cycle;Signal;HPM_P1;HPM_P2
2023/10/23 00:03:54;;;;;;;5.20;2.50;;;;;;;13.57;81.26;99917.72;10341768;28;20086;-63
2023/10/23 00:08:56;;;;;;;4.15;2.25;;;;;;;13.53;80.66;99922.53;10336091;28;20140;-63
2023/10/23 00:13:59;;;;;;;6.82;3.33;;;;;;;13.55;80.98;99935.75;10340497;28;20046;-62
2023/10/23 00:19:00;;;;;;;4.90;3.20;;;;;;;13.42;81.25;99920.06;10356960;28;20045;-63
2023/10/23 00:24:02;;;;;;;6.13;2.65;;;;;;;13.50;82.03;99933.53;10346059;28;20653;-62
2023/10/23 00:29:04;;;;;;;5.97;3.50;;;;;;;13.24;81.71;99909.31;10343824;28;20581;-63
2023/10/23 00:34:05;;;;;;;7.70;3.78;;;;;;;13.42;81.63;99944.13;10338362;28;20140;-62
2023/10/23 00:39:07;;;;;;;5.45;3.10;;;;;;;13.31;81.43;99942.47;10344430;28;20061;-61
2023/10/23 00:44:09;;;;;;;6.07;3.20;;;;;;;13.33;82.04;99951.22;10340518;28;20195;-62
2023/10/23 00:49:10;;;;;;;4.07;3.45;;;;;;;13.30;81.91;99947.97;10344782;28;20247;-63
2023/10/23 00:54:14;;;;;;;3.53;3.22;;;;;;;13.26;81.89;99944.75;10344707;28;20049;-63
2023/10/23 00:59:15;;;;;;;7.40;3.60;;;;;;;13.24;81.93;99949.41;10342065;28;20149;-62
2023/10/23 01:04:18;;;;;;;5.47;3.63;;;;;;;13.22;82.20;99951.38;10340196;28;20041;-61
2023/10/23 01:09:19;;;;;;;4.93;3.30;;;;;;;12.98;81.88;99927.88;10336944;28;20072;-62
2023/10/23 01:14:21;;;;;;;6.22;3.28;;;;;;;12.93;82.00;99920.31;10337905;28;21480;-62
2023/10/23 01:19:23;;;;;;;4.85;2.50;;;;;;;13.04;81.45;99941.47;10347427;28;20257;-63
2023/10/23 01:24:26;;;;;;;4.10;3.17;;;;;;;13.06;81.75;99952.88;10344739;28;20173;-62
2023/10/23 01:29:27;;;;;;;6.72;3.42;;;;;;;12.89;81.56;99942.94;10335308;28;20292;-62
2023/10/23 01:34:29;;;;;;;4.57;3.22;;;;;;;12.98;81.85;99955.41;10332957;28;20044;-63
2023/10/23 01:39:30;;;;;;;5.80;3.78;;;;;;;12.99;81.67;99957.13;10348834;28;20155;-63
2023/10/23 01:44:32;;;;;;;6.30;3.58;;;;;;;12.87;81.42;99944.94;10332879;28;20755;-63
2023/10/23 01:49:34;;;;;;;6.45;3.03;;;;;;;12.86;81.49;99945.91;10340938;28;20057;-63
2023/10/23 01:54:35;;;;;;;4.50;3.10;;;;;;;12.81;82.08;99945.50;10332936;28;20527;-62
2023/10/23 01:59:39;;;;;;;5.25;2.92;;;;;;;12.71;81.86;99946.38;10329624;28;20049;-62
2023/10/23 02:04:41;;;;;;;4.68;3.55;;;;;;;12.78;82.02;99959.16;10342854;28;20064;-63
2023/10/23 02:09:42;;;;;;;5.82;3.22;;;;;;;12.76;82.29;99958.44;10335346;28;20159;-63
2023/10/23 02:14:44;;;;;;;7.38;2.97;;;;;;;12.71;81.99;99970.41;10343420;28;20057;-63
2023/10/23 02:19:46;;;;;;;5.22;3.03;;;;;;;12.66;81.95;99956.66;10335490;28;20053;-62
2023/10/23 02:24:49;;;;;;;5.88;3.20;;;;;;;12.70;81.84;99967.88;10344597;28;20294;-63
2023/10/23 02:29:51;;;;;;;5.32;3.67;;;;;;;12.65;81.18;99962.13;10353937;28;20389;-62
2023/10/23 02:34:53;;;;;;;4.82;3.70;;;;;;;12.57;80.87;99960.19;10349691;28;20196;-62
2023/10/23 02:39:56;;;;;;;8.05;4.18;;;;;;;12.51;81.57;99960.75;10353878;28;20457;-63
2023/10/23 02:44:59;;;;;;;6.97;3.47;;;;;;;12.46;80.76;99963.88;10351217;28;20147;-62
2023/10/23 02:50:00;;;;;;;4.70;3.15;;;;;;;12.36;81.60;99950.53;10350378;28;20071;-63
2023/10/23 02:55:02;;;;;;;7.28;3.17;;;;;;;12.40;80.86;99976.91;10351194;28;20149;-62
2023/10/23 03:00:05;;;;;;;4.57;2.80;;;;;;;12.38;81.43;99985.94;10342398;28;20243;-62
2023/10/23 03:05:07;;;;;;;5.68;3.40;;;;;;;12.23;80.61;99971.31;10350110;28;20049;-62
2023/10/23 03:10:09;;;;;;;7.10;2.72;;;;;;;12.19;80.94;99980.59;10342892;28;20080;-62
2023/10/23 03:15:11;;;;;;;6.03;3.75;;;;;;;12.22;80.45;99991.00;10338612;28;20243;-62
2023/10/23 03:20:16;;;;;;;;;;;;;;;12.14;80.65;99993.50;10342169;28;20048;-63
2023/10/23 03:25:17;;;;;;;6.68;3.67;;;;;;;11.95;80.98;99951.66;10348263;28;19929;-62
2023/10/23 03:30:19;;;;;;;6.15;4.05;;;;;;;12.09;80.46;99990.44;10348397;28;20053;-62
2023/10/23 03:35:20;;;;;;;6.72;3.83;;;;;;;12.06;80.36;99985.38;10348530;28;20529;-62
2023/10/23 03:40:22;;;;;;;6.22;3.60;;;;;;;11.97;80.33;99969.22;10342414;28;20128;-62
2023/10/23 03:45:23;;;;;;;7.90;4.00;;;;;;;12.00;80.51;99990.28;10344899;28;20080;-63
2023/10/23 03:50:25;;;;;;;7.50;3.80;;;;;;;11.93;80.63;99989.13;10334266;28;20759;-62
2023/10/23 03:55:26;;;;;;;6.20;3.25;;;;;;;11.82;81.24;99976.75;10355700;28;20741;-62
2023/10/23 04:00:29;;;;;;;5.53;3.10;;;;;;;11.91;81.76;99988.41;10347343;28;20379;-63
2023/10/23 04:05:32;;;;;;;5.47;2.77;;;;;;;11.89;81.34;99979.72;10347476;28;20049;-62
2023/10/23 04:10:33;;;;;;;6.35;2.80;;;;;;;11.83;81.31;99970.44;10338285;28;20050;-62
2023/10/23 04:15:35;;;;;;;5.38;3.05;;;;;;;11.87;81.42;99971.00;10350544;28;20052;-62
2023/10/23 04:20:36;;;;;;;3.40;2.90;;;;;;;11.84;80.75;99973.94;10347978;28;20523;-61
2023/10/23 04:25:38;;;;;;;5.60;3.28;;;;;;;11.76;80.43;99973.81;10348793;28;20136;-61
2023/10/23 04:30:39;;;;;;;4.80;4.05;;;;;;;11.73;81.06;99979.41;10347577;28;20659;-62
2023/10/23 04:35:41;;;;;;;6.50;4.50;;;;;;;11.70;80.81;99975.19;10336814;28;20053;-62
2023/10/23 04:40:44;;;;;;;5.80;4.13;;;;;;;11.64;81.01;99973.91;10353432;28;20065;-62
2023/10/23 04:45:46;;;;;;;4.88;3.13;;;;;;;11.63;81.25;99982.91;10351842;28;20041;-62
2023/10/23 04:50:47;;;;;;;7.55;3.10;;;;;;;11.62;80.49;99975.00;10348075;28;20104;-61
2023/10/23 04:55:49;;;;;;;8.20;3.60;;;;;;;11.49;80.97;99951.28;10339548;28;20607;-62
2023/10/23 05:00:51;;;;;;;7.13;3.45;;;;;;;11.40;80.53;99952.13;10320792;28;20518;-62
2023/10/23 05:05:53;;;;;;;7.45;3.10;;;;;;;11.44;80.24;99967.69;10344597;28;20053;-61
2023/10/23 05:11:05;;;;;;;5.60;2.90;;;;;;;11.28;81.63;99960.19;10334739;28;20056;-60
2023/10/23 05:16:06;;;;;;;8.52;3.10;;;;;;;11.30;81.81;99963.59;10345458;28;20045;-61
2023/10/23 05:21:12;;;;;;;7.88;2.92;;;;;;;11.31;82.04;99965.25;10342054;28;20053;-61
2023/10/23 05:26:14;;;;;;;5.57;3.25;;;;;;;11.32;82.17;99966.97;10341490;28;20125;-61
2023/10/23 05:31:16;;;;;;;5.35;4.40;;;;;;;11.23;81.99;99967.78;10349047;28;20195;-61
2023/10/23 05:36:18;;;;;;;4.82;3.42;;;;;;;11.26;81.79;99972.84;10331199;28;20061;-61
2023/10/23 05:41:19;;;;;;;5.45;2.90;;;;;;;11.28;81.88;99975.34;10331499;28;20144;-60
2023/10/23 05:46:22;;;;;;;6.20;3.50;;;;;;;11.16;82.04;99966.63;10347123;28;20048;-61
2023/10/23 05:51:24;;;;;;;7.38;3.33;;;;;;;11.24;81.58;99984.59;10337897;28;20069;-60
2023/10/23 05:56:26;;;;;;;7.07;3.80;;;;;;;11.24;80.89;99998.75;10336676;28;20061;-61
2023/10/23 06:01:27;;;;;;;6.15;4.40;;;;;;;11.22;81.80;99998.03;10339213;28;20072;-61
2023/10/23 06:06:30;;;;;;;5.18;4.00;;;;;;;11.21;81.50;100003.50;10339453;28;20434;-61
2023/10/23 06:11:31;;;;;;;7.10;5.40;;;;;;;11.23;82.62;100004.22;10333507;28;20385;-62
2023/10/23 06:16:33;;;;;;;9.63;6.10;;;;;;;11.11;83.47;99990.16;10343667;28;20050;-50
2023/10/23 06:21:35;;;;;;;10.13;6.00;;;;;;;11.22;82.95;100008.69;10329364;28;20056;-50
2023/10/23 06:26:36;;;;;;;10.25;7.05;;;;;;;11.22;82.91;100008.69;10328979;28;20049;-63
2023/10/23 06:31:39;;;;;;;10.95;6.47;;;;;;;11.09;82.66;100005.41;10327422;28;20068;-61
2023/10/23 06:36:42;;;;;;;10.47;6.10;;;;;;;11.17;83.12;100015.41;10333844;28;20330;-62
2023/10/23 06:41:44;;;;;;;8.82;6.22;;;;;;;11.09;83.53;100002.75;10334131;28;20626;-62
2023/10/23 06:46:46;;;;;;;8.45;6.22;;;;;;;11.15;82.71;100018.19;10335044;28;20057;-61
2023/10/23 06:51:48;;;;;;;6.95;5.05;;;;;;;11.17;83.34;100016.25;10333605;28;20057;-66
2023/10/23 06:56:50;;;;;;;7.28;5.53;;;;;;;11.23;83.45;100017.53;10329130;28;20080;-62
2023/10/23 07:01:52;;;;;;;10.80;6.40;;;;;;;11.33;83.81;100018.41;10335921;28;20615;-60
2023/10/23 07:06:55;;;;;;;7.00;5.47;;;;;;;11.40;83.64;100016.06;10335469;28;20240;-60
2023/10/23 07:11:56;;;;;;;7.72;5.25;;;;;;;11.47;82.97;100017.22;10332806;28;20946;-61
2023/10/23 07:16:58;;;;;;;6.40;5.38;;;;;;;11.59;83.41;100017.94;10336268;28;20128;-61
2023/10/23 07:22:00;;;;;;;8.63;6.32;;;;;;;11.70;83.11;100011.69;10341561;28;20569;-61
2023/10/23 07:27:01;;;;;;;6.60;5.90;;;;;;;11.79;83.08;100010.84;10343617;28;20246;-62
2023/10/23 07:32:04;;;;;;;7.25;5.90;;;;;;;11.84;82.64;100016.59;10339800;28;20160;-62
2023/10/23 07:37:05;;;;;;;8.85;7.38;;;;;;;11.89;82.40;100006.38;10331829;28;20148;-59
2023/10/23 07:42:07;;;;;;;10.52;8.15;;;;;;;11.95;81.39;100000.53;10352281;28;20144;-61
2023/10/23 07:47:09;;;;;;;8.50;7.55;;;;;;;11.99;81.42;99990.41;10341816;28;20060;-63
2023/10/23 07:52:11;;;;;;;8.75;7.03;;;;;;;12.07;81.76;99979.03;10341410;28;20061;-56
2023/10/23 07:57:13;;;;;;;6.93;6.22;;;;;;;12.07;82.05;99952.34;10340667;28;20060;-59
2023/10/23 08:02:14;;;;;;;8.50;5.32;;;;;;;12.23;80.93;99952.63;10339288;28;20053;-59
2023/10/23 08:07:16;;;;;;;4.68;3.47;;;;;;;12.37;81.65;99962.88;10339089;28;20056;-61
2023/10/23 08:12:18;;;;;;;3.55;2.92;;;;;;;12.54;80.49;99974.66;10341828;28;20059;-61
2023/10/23 08:17:20;;;;;;;2.40;1.65;;;;;;;12.66;79.55;99967.34;10336646;28;20060;-61
2023/10/23 08:22:42;;;;;;;4.75;2.17;;;;;;;12.78;79.54;99975.19;10318211;28;20322;-60
2023/10/23 08:27:43;;;;;;;3.15;2.03;;;;;;;12.81;80.60;99969.56;10329408;28;20297;-61
2023/10/23 08:32:46;;;;;;;5.07;1.95;;;;;;;12.94;80.56;99953.19;10348753;28;20971;-63
2023/10/23 08:37:55;;;;;;;3.53;2.28;;;;;;;13.16;79.47;99960.84;10340871;28;20056;-63
2023/10/23 08:42:57;;;;;;;2.30;1.53;;;;;;;13.17;79.02;99959.03;10343317;28;20053;-63
2023/10/23 08:47:58;;;;;;;4.60;1.90;;;;;;;13.21;78.38;99955.03;10345009;28;20107;-62
2023/10/23 08:53:06;;;;;;;2.47;1.20;;;;;;;13.41;79.36;99956.66;10342316;28;20064;-64
2023/10/23 08:58:13;;;;;;;3.10;2.10;;;;;;;13.58;76.28;99967.56;10339405;28;20445;-63
2023/10/23 09:03:16;;;;;;;4.15;2.88;;;;;;;13.72;76.93;99948.31;10338403;28;20057;-62
2023/10/23 09:08:37;;;;;;;7.35;2.70;;;;;;;13.95;76.52;99948.72;10346389;28;21180;-63
2023/10/23 09:13:46;;;;;;;3.80;2.28;;;;;;;13.94;77.13;99941.66;10341336;28;20088;-64
2023/10/23 09:18:51;;;;;;;3.30;2.20;;;;;;;14.18;76.00;99952.75;10337084;28;20057;-64
2023/10/23 09:23:56;;;;;;;4.20;2.13;;;;;;;14.41;76.80;99937.91;10337269;28;20129;-64
2023/10/23 09:28:57;;;;;;;7.97;2.40;;;;;;;14.67;74.66;99953.16;10327509;28;20246;-63
2023/10/23 09:34:00;;;;;;;4.05;2.00;;;;;;;14.69;73.31;99929.72;10346891;28;20072;-64
2023/10/23 09:39:02;;;;;;;4.75;2.15;;;;;;;14.60;74.88;99919.94;10345115;28;20084;-66
2023/10/23 09:44:07;;;;;;;3.60;2.10;;;;;;;14.55;75.20;99914.22;10343634;28;20063;-64
2023/10/23 09:49:10;;;;;;;5.15;2.35;;;;;;;14.62;75.14;99913.47;10341005;28;20053;-64
2023/10/23 09:54:17;;;;;;;3.45;1.77;;;;;;;14.69;74.37;99910.97;10339650;28;20426;-62
2023/10/23 09:59:29;;;;;;;4.20;1.67;;;;;;;14.70;74.85;99893.91;10336979;28;20064;-62
2023/10/23 10:04:59;;;;;;;2.65;1.80;;;;;;;14.85;75.34;99916.44;10339279;28;20195;-63
2023/10/23 10:10:01;;;;;;;4.22;1.80;;;;;;;14.88;75.32;99904.56;10337214;28;20083;-63
2023/10/23 10:15:08;;;;;;;3.85;2.13;;;;;;;14.91;75.34;99922.16;10336678;28;20060;-62
2023/10/23 10:20:12;;;;;;;5.10;2.08;;;;;;;14.83;75.48;99907.72;10336870;28;20068;-65
2023/10/23 10:25:16;;;;;;;3.38;2.05;;;;;;;14.84;75.47;99917.41;10333928;28;20642;-65
2023/10/23 10:30:47;;;;;;;4.93;4.18;;;;;;;14.67;75.68;99872.81;10345609;28;20044;-64
2023/10/23 10:35:59;;;;;;;4.30;2.38;;;;;;;14.76;76.86;99898.63;10340011;28;20218;-63
2023/10/23 10:41:18;;;;;;;4.95;2.78;;;;;;;14.76;76.92;99884.41;10336317;28;20753;-63
2023/10/23 10:46:28;;;;;;;4.07;2.83;;;;;;;14.80;76.91;99872.34;10332376;28;20560;-60
2023/10/23 10:51:31;;;;;;;3.38;2.97;;;;;;;14.81;76.97;99876.72;10338749;28;20149;-61
2023/10/23 10:56:33;;;;;;;6.47;3.10;;;;;;;14.85;77.21;99862.00;10337880;28;20073;-59
2023/10/23 11:01:35;;;;;;;12.18;10.10;;;;;;;14.90;77.15;99850.81;10345973;28;20489;-60
2023/10/23 11:06:37;;;;;;;5.00;4.50;;;;;;;15.02;77.71;99854.84;10334496;28;20085;-63
2023/10/23 11:11:39;;;;;;;5.30;2.85;;;;;;;15.06;77.38;99844.63;10343356;28;20208;-61
2023/10/23 11:16:41;;;;;;;7.03;3.50;;;;;;;14.93;77.30;99812.97;10332761;28;20063;-63
2023/10/23 11:21:44;;;;;;;3.30;2.65;;;;;;;15.08;77.46;99832.75;10334885;28;20421;-63
2023/10/23 11:26:46;;;;;;;4.00;2.70;;;;;;;14.97;77.16;99793.72;10336122;28;20069;-62
2023/10/23 11:31:49;;;;;;;4.63;3.50;;;;;;;15.20;75.92;99793.91;10337954;28;20669;-61
2023/10/23 11:36:51;;;;;;;6.47;2.88;;;;;;;15.40;76.81;99793.59;10344831;28;20053;-60
2023/10/23 11:41:54;;;;;;;4.65;2.88;;;;;;;15.53;76.03;99788.59;10336301;28;20054;-60
2023/10/23 11:47:00;;;;;;;5.75;2.45;;;;;;;15.51;74.08;99771.84;10342459;28;20041;-61
2023/10/23 11:52:02;;;;;;;3.50;2.10;;;;;;;15.58;74.36;99780.03;10346439;28;20099;-59
2023/10/23 11:57:05;;;;;;;4.10;2.08;;;;;;;15.54;75.21;99774.19;10334658;28;20041;-61
2023/10/23 12:02:07;;;;;;;5.05;2.10;;;;;;;15.72;74.93;99775.88;10356400;28;20045;-59
2023/10/23 12:07:08;;;;;;;3.88;1.77;;;;;;;15.89;74.08;99764.13;10343398;28;20056;-61
2023/10/23 12:12:11;;;;;;;5.32;1.42;;;;;;;16.02;72.41;99760.94;10349495;28;20485;-61
2023/10/23 12:17:13;;;;;;;4.30;1.70;;;;;;;16.14;72.13;99753.34;10321762;28;20146;-61
2023/10/23 12:22:15;;;;;;;4.28;2.05;;;;;;;16.26;71.21;99732.34;10336805;28;20079;-63
2023/10/23 12:27:17;;;;;;;3.33;1.40;;;;;;;16.43;70.24;99741.16;10320912;28;20057;-61
2023/10/23 12:32:18;;;;;;;4.53;1.52;;;;;;;16.32;70.17;99720.03;10339623;28;20096;-61
2023/10/23 12:37:40;;;;;;;5.93;1.60;;;;;;;16.44;68.82;99694.50;10346025;28;20060;-60
2023/10/23 12:42:43;;;;;;;3.75;1.40;;;;;;;16.46;68.61;99713.13;10327150;28;20534;-60
2023/10/23 12:47:44;;;;;;;6.93;1.50;;;;;;;16.28;70.02;99697.25;10333936;28;20114;-61
2023/10/23 12:52:46;;;;;;;3.72;1.23;;;;;;;16.21;70.07;99689.03;10338203;28;20144;-61
2023/10/23 12:57:49;;;;;;;2.07;1.10;;;;;;;16.14;70.79;99677.31;10346600;28;20579;-62
2023/10/23 13:02:54;;;;;;;2.95;1.23;;;;;;;16.05;70.95;99663.09;10339596;28;20076;-61
2023/10/23 13:07:56;;;;;;;3.50;1.40;;;;;;;15.99;71.29;99650.34;10323644;28;20742;-60
2023/10/23 13:12:58;;;;;;;5.30;1.20;;;;;;;16.00;71.04;99644.00;10336627;28;20166;-58
2023/10/23 13:18:01;;;;;;;4.38;1.35;;;;;;;16.02;71.43;99633.94;10346606;28;20356;-59
2023/10/23 13:23:03;;;;;;;4.40;1.00;;;;;;;15.98;71.45;99620.00;10331903;28;20694;-70
2023/10/23 13:28:05;;;;;;;5.07;1.40;;;;;;;16.00;71.39;99611.78;10344565;28;20476;-62
2023/10/23 13:33:06;;;;;;;4.80;1.58;;;;;;;15.96;71.55;99605.94;10338704;28;20060;-57
2023/10/23 13:38:08;;;;;;;5.18;1.90;;;;;;;15.98;72.34;99597.72;10349638;28;20088;-58
2023/10/23 13:43:10;;;;;;;6.95;2.30;;;;;;;15.98;72.55;99581.59;10337078;28;21416;-61
2023/10/23 13:48:13;;;;;;;4.45;1.60;;;;;;;15.97;72.88;99572.69;10339336;28;20812;-61
2023/10/23 13:53:20;;;;;;;4.53;1.33;;;;;;;15.89;72.92;99551.28;10336252;28;20057;-60
2023/10/23 13:58:22;;;;;;;3.03;1.00;;;;;;;15.89;72.90;99536.00;10335883;28;20063;-58
2023/10/23 14:03:24;;;;;;;6.05;3.38;;;;;;;15.94;72.14;99545.38;10342016;28;20057;-59
2023/10/23 14:08:29;;;;;;;3.00;1.27;;;;;;;15.72;72.21;99508.38;10334584;28;20514;-61
2023/10/23 14:13:51;;;;;;;3.95;1.38;;;;;;;15.76;71.11;99541.06;10332795;28;20924;-59
2023/10/23 14:18:53;;;;;;;4.35;1.63;;;;;;;15.79;71.61;99526.50;10331702;28;20045;-59
2023/10/23 14:23:55;;;;;;;7.53;1.38;;;;;;;15.83;72.66;99507.19;10332635;28;20304;-60
2023/10/23 14:28:56;;;;;;;3.42;1.60;;;;;;;15.75;72.24;99496.47;10337588;28;20049;-60
2023/10/23 14:33:58;;;;;;;2.53;1.10;;;;;;;15.85;71.80;99505.19;10338392;28;20583;-59
2023/10/23 14:38:59;;;;;;;3.53;1.30;;;;;;;15.83;71.82;99499.13;10322451;28;20051;-59
2023/10/23 14:44:01;;;;;;;3.20;1.20;;;;;;;15.76;70.44;99503.50;10351034;28;20053;-60
2023/10/23 14:49:03;;;;;;;4.70;1.83;;;;;;;15.73;70.93;99477.00;10341869;28;20167;-59
2023/10/23 14:54:05;;;;;;;3.88;1.40;;;;;;;15.74;70.33;99481.38;10346695;28;20135;-60
2023/10/23 14:59:06;;;;;;;4.10;1.48;;;;;;;15.79;71.34;99479.03;10338892;28;20075;-59
2023/10/23 15:04:08;;;;;;;3.83;1.38;;;;;;;15.77;71.48;99467.63;10348427;28;20054;-59
2023/10/23 15:09:10;;;;;;;3.38;1.92;;;;;;;15.76;71.14;99465.94;10342305;28;20057;-59
2023/10/23 15:14:12;;;;;;;4.78;1.63;;;;;;;15.77;72.05;99446.16;10360746;28;20883;-59
2023/10/23 15:19:14;;;;;;;3.55;1.42;;;;;;;15.76;71.82;99436.41;10344135;28;20083;-59
2023/10/23 15:24:16;;;;;;;5.50;3.13;;;;;;;15.75;72.13;99424.03;10342177;28;20057;-59
2023/10/23 15:29:18;;;;;;;5.18;2.83;;;;;;;15.70;73.08;99391.53;10337488;28;20158;-61
2023/10/23 15:34:20;;;;;;;5.72;2.28;;;;;;;15.66;72.84;99396.41;10347541;28;20489;-59
2023/10/23 15:39:22;;;;;;;4.00;1.45;;;;;;;15.44;73.64;99392.69;10338559;28;20065;-59
2023/10/23 15:44:30;;;;;;;2.53;1.60;;;;;;;15.48;76.86;99391.31;10333190;28;20414;-59
2023/10/23 15:49:32;;;;;;;2.15;1.38;;;;;;;15.45;76.98;99380.13;10346956;28;20140;-60
2023/10/23 15:54:34;;;;;;;5.00;2.17;;;;;;;15.40;76.14;99369.91;10339348;28;20050;-59
2023/10/23 15:59:35;;;;;;;4.78;1.88;;;;;;;15.38;77.04;99362.03;10333254;28;20054;-60
2023/10/23 16:04:37;;;;;;;6.93;2.08;;;;;;;15.36;77.83;99385.53;10341993;28;20057;-60
2023/10/23 16:09:39;;;;;;;3.65;2.00;;;;;;;15.32;79.60;99384.19;10341352;28;20517;-60
2023/10/23 16:14:41;;;;;;;4.25;2.35;;;;;;;15.29;81.21;99389.09;10341440;28;20056;-59
2023/10/23 16:19:57;;;;;;;3.88;1.75;;;;;;;15.30;81.76;99380.88;10340354;28;20071;-61
2023/10/23 16:24:58;;;;;;;5.45;2.03;;;;;;;15.31;81.47;99393.28;10333739;28;20391;-64
2023/10/23 16:30:02;;;;;;;2.95;1.75;;;;;;;15.28;81.77;99376.69;10344037;28;20060;-61
2023/10/23 16:35:03;;;;;;;3.47;2.05;;;;;;;15.27;82.09;99385.75;10335765;28;20085;-61
2023/10/23 16:40:06;;;;;;;4.43;1.88;;;;;;;15.25;82.19;99371.66;10349550;28;20079;-61
2023/10/23 16:45:08;;;;;;;3.92;2.75;;;;;;;15.23;81.95;99373.69;10346394;28;20919;-61
2023/10/23 16:50:09;;;;;;;4.35;2.08;;;;;;;15.19;80.52;99387.47;10340762;28;20224;-62
2023/10/23 16:55:11;;;;;;;3.80;1.80;;;;;;;15.14;80.89;99370.22;10339018;28;20124;-62
2023/10/23 17:00:15;;;;;;;5.65;2.70;;;;;;;15.19;80.56;99389.28;10330580;28;20052;-59
2023/10/23 17:05:17;;;;;;;5.10;2.70;;;;;;;15.09;81.00;99383.31;10336606;28;20085;-61
2023/10/23 17:10:19;;;;;;;3.72;2.75;;;;;;;15.16;82.13;99417.28;10341655;28;20153;-61
2023/10/23 17:15:21;;;;;;;4.40;2.20;;;;;;;15.11;81.00;99408.09;10337247;28;20414;-61
2023/10/23 17:20:24;;;;;;;4.15;1.55;;;;;;;15.10;80.14;99395.69;10338874;28;20053;-60
2023/10/23 17:25:25;;;;;;;3.83;1.60;;;;;;;15.07;80.10;99407.59;10335401;28;20057;-62
2023/10/23 17:30:27;;;;;;;4.88;1.83;;;;;;;14.93;80.26;99408.31;10338582;28;20056;-62
2023/10/23 17:35:29;;;;;;;4.47;2.42;;;;;;;14.89;81.75;99402.47;10333181;28;20053;-62
2023/10/23 17:40:36;;;;;;;5.47;2.30;;;;;;;14.91;83.73;99423.75;10335138;28;20126;-62
2023/10/23 17:45:38;;;;;;;4.13;1.80;;;;;;;14.95;85.22;99436.63;10336883;28;20049;-62
2023/10/23 17:50:40;;;;;;;3.20;2.00;;;;;;;14.97;85.26;99428.41;10334549;28;20501;-62
2023/10/23 17:55:42;;;;;;;4.00;2.55;;;;;;;14.93;84.90;99461.91;10329912;28;20052;-61
2023/10/23 18:00:43;;;;;;;3.58;2.28;;;;;;;14.91;84.73;99456.72;10330141;28;20059;-60
2023/10/23 18:05:46;;;;;;;5.07;2.40;;;;;;;14.94;86.43;99440.31;10330770;28;20049;-60
2023/10/23 18:10:47;;;;;;;5.25;1.92;;;;;;;14.84;86.35;99397.63;10336555;28;20184;-61
2023/10/23 18:15:48;;;;;;;4.03;2.28;;;;;;;14.79;86.21;99383.91;10337948;28;20045;-61
2023/10/23 18:20:53;;;;;;;3.40;2.70;;;;;;;14.84;87.05;99399.47;10340636;28;21081;-61
2023/10/23 18:26:01;;;;;;;3.88;2.50;;;;;;;14.80;87.70;99408.84;10331278;28;20053;-62
2023/10/23 18:31:03;;;;;;;2.70;2.15;;;;;;;14.78;87.40;99425.09;10340244;28;20124;-61
2023/10/23 18:36:12;;;;;;;4.35;2.47;;;;;;;14.76;89.42;99432.47;10334807;28;20054;-51
2023/10/23 18:41:18;;;;;;;4.78;2.55;;;;;;;14.77;90.04;99415.41;10334614;28;20346;-51
2023/10/23 18:46:21;;;;;;;4.15;2.40;;;;;;;14.77;90.65;99402.03;10332403;28;20136;-52
2023/10/23 18:51:23;;;;;;;6.28;2.50;;;;;;;14.75;90.29;99401.34;10338830;28;20125;-51
2023/10/23 18:56:25;;;;;;;4.05;2.65;;;;;;;14.67;90.79;99379.94;10337277;28;21354;-51
2023/10/23 19:01:27;;;;;;;3.38;2.65;;;;;;;14.73;91.03;99383.78;10326701;28;20057;-53
2023/10/23 19:06:30;;;;;;;3.30;1.83;;;;;;;14.73;91.13;99381.94;10335936;28;20064;-52
2023/10/23 19:11:32;;;;;;;3.72;2.42;;;;;;;14.70;91.74;99379.59;10339561;28;20426;-51
2023/10/23 19:16:33;;;;;;;3.97;2.33;;;;;;;14.67;91.53;99385.31;10342516;28;20556;-51
2023/10/23 19:21:35;;;;;;;6.13;2.38;;;;;;;14.69;91.05;99390.47;10337944;28;20139;-52
2023/10/23 19:26:36;;;;;;;3.70;2.60;;;;;;;14.68;91.45;99405.69;10340709;28;20647;-50
2023/10/23 19:31:38;;;;;;;5.00;2.60;;;;;;;14.68;91.59;99408.38;10334862;28;20068;-53
2023/10/23 19:36:40;;;;;;;3.28;2.90;;;;;;;14.68;92.18;99378.91;10334998;28;20053;-52
2023/10/23 19:41:48;;;;;;;4.00;2.45;;;;;;;14.66;92.71;99363.00;10342730;28;20517;-51
2023/10/23 19:46:50;;;;;;;3.85;2.38;;;;;;;14.60;92.52;99347.59;10349251;28;20089;-52
2023/10/23 19:51:53;;;;;;;4.25;2.88;;;;;;;14.64;92.79;99348.16;10345123;28;20057;-57
2023/10/23 19:56:55;;;;;;;4.50;3.05;;;;;;;14.61;92.91;99322.53;10345193;28;20045;-52
2023/10/23 20:02:00;;;;;;;5.57;4.10;;;;;;;14.62;93.37;99307.28;10342836;28;20871;-62
2023/10/23 20:07:02;;;;;;;4.47;2.80;;;;;;;14.61;93.02;99273.50;10336146;28;20231;-62
2023/10/23 20:12:04;;;;;;;5.90;3.90;;;;;;;14.52;92.87;99266.44;10331834;28;20053;-61
2023/10/23 20:17:06;;;;;;;3.92;3.53;;;;;;;14.47;92.43;99272.31;10355933;23;20057;-73
2023/10/23 20:22:08;;;;;;;4.80;3.60;;;;;;;14.48;92.81;99253.41;10355574;28;20082;-71
2023/10/23 20:27:09;;;;;;;4.80;3.45;;;;;;;14.45;92.85;99231.50;10386777;28;20223;-71
2023/10/23 20:32:11;;;;;;;5.90;3.20;;;;;;;14.38;92.62;99223.34;10401465;28;20051;-70
2023/10/23 20:37:13;;;;;;;4.47;3.03;;;;;;;14.37;92.88;99228.88;10404251;28;20076;-70
2023/10/23 20:42:14;;;;;;;4.80;2.92;;;;;;;14.34;92.99;99219.34;10402650;28;20057;-70
2023/10/23 20:47:16;;;;;;;5.30;3.15;;;;;;;14.36;93.45;99225.34;10407636;28;20455;-70
2023/10/23 20:52:17;;;;;;;4.60;3.20;;;;;;;14.36;93.37;99233.38;10405106;28;20099;-70
2023/10/23 20:57:19;;;;;;;3.78;2.47;;;;;;;14.28;93.61;99214.69;10398158;28;20858;-70
2023/10/23 21:02:20;;;;;;;4.82;3.67;;;;;;;14.33;93.82;99220.34;10399518;28;20570;-71
2023/10/23 21:07:22;;;;;;;3.38;2.30;;;;;;;14.30;93.78;99204.63;10400480;28;20083;-71
2023/10/23 21:12:23;;;;;;;6.63;3.30;;;;;;;14.32;93.19;99207.97;10401483;28;20058;-69
2023/10/23 21:17:24;;;;;;;4.78;2.50;;;;;;;14.27;93.17;99196.94;10397566;28;20057;-69
2023/10/23 21:22:26;;;;;;;4.88;2.47;;;;;;;14.22;92.91;99210.03;10395797;28;20071;-69
2023/10/23 21:27:28;;;;;;;4.00;2.33;;;;;;;14.24;93.88;99210.69;10395914;28;20148;-69
2023/10/23 21:32:29;;;;;;;2.80;1.95;;;;;;;14.21;92.86;99208.34;10396207;28;20050;-70
2023/10/23 21:37:30;;;;;;;5.20;2.00;;;;;;;14.13;93.16;99196.66;10396496;28;20515;-71
2023/10/23 21:42:32;;;;;;;4.10;2.20;;;;;;;14.20;92.60;99185.25;10396214;28;20079;-69
2023/10/23 21:47:34;;;;;;;4.97;2.03;;;;;;;14.20;92.58;99175.41;10397108;28;21888;-70
2023/10/23 21:52:38;;;;;;;5.22;2.40;;;;;;;14.24;92.00;99183.91;10380703;28;20237;-70
2023/10/23 21:57:41;;;;;;;3.40;2.25;;;;;;;14.18;91.69;99166.69;10390081;28;20053;-70
2023/10/23 22:02:43;;;;;;;3.17;2.25;;;;;;;14.19;91.42;99167.56;10390181;28;20049;-70
2023/10/23 22:07:48;;;;;;;3.85;2.10;;;;;;;14.12;91.40;99168.22;10386408;28;20083;-70
2023/10/23 22:12:53;;;;;;;2.70;1.80;;;;;;;14.08;91.62;99182.13;10392678;28;20044;-70
2023/10/23 22:17:55;;;;;;;2.80;2.00;;;;;;;14.12;91.62;99167.41;10384544;28;20079;-68
2023/10/23 22:22:56;;;;;;;4.47;2.55;;;;;;;14.16;91.16;99168.72;10413272;28;20063;-70
2023/10/23 22:27:58;;;;;;;2.45;1.95;;;;;;;14.09;91.12;99157.03;10378675;28;20046;-70
2023/10/23 22:32:59;;;;;;;2.97;1.80;;;;;;;14.10;91.12;99164.06;10396377;28;20245;-70
2023/10/23 22:38:08;;;;;;;3.35;1.98;;;;;;;14.10;91.55;99159.53;10397856;28;20540;-70
2023/10/23 22:43:13;;;;;;;3.17;2.00;;;;;;;14.11;90.76;99155.88;10395971;28;20052;-71
2023/10/23 22:48:14;;;;;;;2.35;1.65;;;;;;;14.18;91.79;99145.28;10403894;28;20548;-71
2023/10/23 22:53:16;;;;;;;3.10;2.05;;;;;;;14.22;92.07;99135.09;10409175;28;20053;-71
2023/10/23 22:58:19;;;;;;;2.50;1.77;;;;;;;14.27;92.49;99125.50;10401612;28;20121;-71
2023/10/23 23:03:21;;;;;;;2.90;1.67;;;;;;;14.31;92.28;99134.03;10404836;28;20065;-71
2023/10/23 23:08:25;;;;;;;4.05;2.45;;;;;;;14.33;92.12;99138.19;10403010;28;20120;-71
2023/10/23 23:13:27;;;;;;;2.45;1.77;;;;;;;14.31;91.92;99134.88;10404950;28;20049;-71
2023/10/23 23:18:30;;;;;;;3.53;1.73;;;;;;;14.37;92.54;99132.50;10399602;28;20044;-72
2023/10/23 23:23:47;;;;;;;2.97;2.40;;;;;;;14.39;92.63;99144.69;10357596;28;20056;-70
2023/10/23 23:28:48;;;;;;;3.67;2.33;;;;;;;14.34;91.26;99152.44;10403084;28;20144;-70